Impacts TAF Board
For situational awareness. Not to be used for flight planning purposes.
IDs:

KDTW - Detroit Metro/Wayne, MI, US

Issued at 2338 UTC 15 Oct 2018
Updated at 0122 UTC 16 Oct 2018
Potential Impact None Slight Moderate High
Time<<17/02Z 17/03Z 17/04Z 17/05Z 17/06Z 17/07Z 17/08Z 17/09Z 17/10Z 17/11Z 17/12Z 17/13Z 17/14Z
Type PRVL PRVL PRVL PRVL
VIS >6 >6 >6 >6
CIG -- -- -- --
Cover SCT SCT SCT SCT
FltCat VFR VFR VFR VFR
WX -- -- -- --
WDir 230 230 230 230
WSpd 16 16 16 16
WGst 26 26 26 26
Raw TAF
KDTW 152338Z 1600/1706 28012G20KT P6SM FEW040
  FM160200 27012KT P6SM SCT040
  FM160600 24008KT P6SM BKN035
  FM161000 22007KT P6SM SKC
  FM161500 23016G26KT P6SM SCT080


METAR Board
Radar Display
Forecast Discussion
For situational awareness. Not to be used for flight planning purposes.